Time;durP1;ratioP1;P1;durP2;ratioP2;P2;SDS_P1;SDS_P2;PMS_P1;PMS_P2;Temp;Humidity;BMP_temperature;BMP_pressure;BME280_temperature;BME280_humidity;BME280_pressure;Samples;Min_cycle;Max_cycle;Signal;HPM_P1;HPM_P2
2022/07/28 00:00:16;;;;;;;;;;;;;;;10.30;56.07;100888.13;1623109;87;20259;-74
2022/07/28 00:02:44;;;;;;;;;;;;;;;10.27;56.18;100888.45;1648874;86;20162;-74
2022/07/28 00:05:10;;;;;;;;;;;;;;;10.25;56.29;100889.57;1653829;86;20180;-74
2022/07/28 00:07:36;;;;;;;;;;;;;;;10.22;56.37;100894.72;1665071;85;20182;-74
2022/07/28 00:10:03;;;;;;;;;;;;;;;10.20;56.47;100898.55;1673415;85;21065;-74
2022/07/28 00:12:29;;;;;;;;;;;;;;;10.16;56.57;100895.35;1685741;84;20165;-74
2022/07/28 00:14:55;;;;;;;;;;;;;;;10.14;56.65;100897.32;1672942;84;20211;-74
2022/07/28 00:17:20;;;;;;;;;;;;;;;10.12;56.75;100893.95;1673081;84;20683;-74
2022/07/28 00:19:46;;;;;;;;;;;;;;;10.10;56.85;100889.25;1673625;85;20218;-74
2022/07/28 00:22:12;;;;;;;;;;;;;;;10.07;56.95;100888.23;1636834;87;21156;-74
2022/07/28 00:24:38;;;;;;;;;;;;;;;10.05;57.02;100891.56;1673029;84;20220;-74
2022/07/28 00:27:05;;;;;;;;;;;;;;;10.03;57.08;100890.86;1672762;84;20272;-74
2022/07/28 00:29:31;;;;;;;;;;;;;;;10.00;57.19;100891.17;1667151;85;20208;-74
2022/07/28 00:31:58;;;;;;;;;;;;;;;9.95;57.26;100890.33;1676415;85;20768;-74
2022/07/28 00:34:24;;;;;;;;;;;;;;;9.93;57.41;100889.62;1676240;84;21743;-74
2022/07/28 00:36:50;;;;;;;;;;;;;;;9.90;57.46;100884.61;1675959;84;20276;-74
2022/07/28 00:39:16;;;;;;;;;;;;;;;9.89;57.54;100886.92;1676175;84;20220;-74
2022/07/28 00:41:42;;;;;;;;;;;;;;;9.87;57.62;100890.73;1676362;84;20681;-74
2022/07/28 00:44:08;;;;;;;;;;;;;;;9.85;57.71;100891.41;1676443;85;20153;-74
2022/07/28 00:46:34;;;;;;;;;;;;;;;9.82;57.80;100887.20;1666582;86;22139;-74
2022/07/28 00:49:00;;;;;;;;;;;;;;;9.79;57.87;100884.84;1671717;84;20133;-74
2022/07/28 00:51:26;;;;;;;;;;;;;;;9.77;57.98;100888.16;1634462;86;20243;-74
2022/07/28 00:53:53;;;;;;;;;;;;;;;9.75;58.04;100882.62;1661674;84;20461;-74
2022/07/28 00:56:19;;;;;;;;;;;;;;;9.73;58.13;100885.95;1615466;88;20480;-74
2022/07/28 00:58:46;;;;;;;;;;;;;;;9.72;58.23;100885.59;1668182;84;21095;-74
2022/07/28 01:01:14;;;;;;;;;;;;;;;9.69;58.28;100883.25;1670862;84;20192;-74
2022/07/28 01:03:40;;;;;;;;;;;;;;;9.68;58.37;100886.89;1666864;84;20511;-74
2022/07/28 01:06:31;;;;;;;;;;;;;;;9.65;58.43;100883.20;1670152;85;20455;-74
2022/07/28 01:09:34;;;;;;;;;;;;;;;9.63;58.51;100887.36;1646160;86;20498;-74
2022/07/28 01:12:22;;;;;;;;;;;;;;;9.61;58.59;100885.82;1598722;89;21870;-74
2022/07/28 01:14:51;;;;;;;;;;;;;;;9.59;58.69;100882.00;1644526;85;20198;-74
2022/07/28 01:17:20;;;;;;;;;;;;;;;9.59;58.75;100890.47;1675605;84;20465;-74
2022/07/28 01:19:57;;;;;;;;;;;;;;;9.58;58.83;100891.45;1673578;85;20606;-74
2022/07/28 01:22:24;;;;;;;;;;;;;;;9.58;58.90;100886.97;1672635;84;20163;-74
2022/07/28 01:25:27;;;;;;;;;;;;;;;9.58;58.96;100892.78;1673638;85;21723;-74
2022/07/28 01:28:16;;;;;;;;;;;;;;;9.59;59.04;100891.31;1675835;84;20175;-74
2022/07/28 01:30:42;;;;;;;;;;;;;;;9.58;59.15;100900.28;1673964;84;20438;-74
2022/07/28 01:33:15;;;;;;;;;;;;;;;9.59;59.23;100901.13;1673307;85;20161;-74
2022/07/28 01:35:46;;;;;;;;;;;;;;;9.61;59.34;100906.63;1672581;84;20149;-74
2022/07/28 01:38:13;;;;;;;;;;;;;;;9.61;59.41;100912.45;1673196;84;21034;-74
2022/07/28 01:40:40;;;;;;;;;;;;;;;9.60;59.50;100912.13;1673504;85;20144;-74
2022/07/28 01:43:07;;;;;;;;;;;;;;;9.60;59.57;100914.80;1672877;84;20184;-74
2022/07/28 01:45:33;;;;;;;;;;;;;;;9.61;59.64;100913.78;1672800;85;20175;-74
2022/07/28 01:47:59;;;;;;;;;;;;;;;9.59;59.75;100917.10;1635948;86;20307;-74
2022/07/28 01:50:25;;;;;;;;;;;;;;;9.57;59.87;100916.43;1653712;86;21091;-74
2022/07/28 01:52:51;;;;;;;;;;;;;;;9.56;59.95;100916.08;1657913;85;20184;-74
2022/07/28 01:55:19;;;;;;;;;;;;;;;9.54;60.06;100910.40;1673013;84;20274;-74
2022/07/28 01:57:45;;;;;;;;;;;;;;;9.56;60.16;100912.08;1636214;86;20384;-74
2022/07/28 02:00:12;;;;;;;;;;;;;;;9.52;60.25;100915.05;1663128;85;20497;-74
2022/07/28 02:02:41;;;;;;;;;;;;;;;9.52;60.34;100916.88;1673232;85;21013;-74
2022/07/28 02:05:07;;;;;;;;;;;;;;;9.50;60.41;100917.00;1673174;84;20468;-74
2022/07/28 02:07:33;;;;;;;;;;;;;;;9.46;60.51;100907.64;1637100;87;20205;-74
2022/07/28 02:09:59;;;;;;;;;;;;;;;9.40;60.58;100906.08;1665446;84;20168;-74
2022/07/28 02:12:25;;;;;;;;;;;;;;;9.35;60.66;100911.87;1676087;85;20264;-74
2022/07/28 02:14:51;;;;;;;;;;;;;;;9.33;60.78;100913.83;1675752;84;21690;-74
2022/07/28 02:17:19;;;;;;;;;;;;;;;9.32;60.86;100908.16;1677211;84;20276;-73
2022/07/28 02:19:45;;;;;;;;;;;;;;;9.34;60.93;100903.53;1675935;85;20180;-74
2022/07/28 02:22:11;;;;;;;;;;;;;;;9.37;60.97;100908.55;1673757;84;20618;-74
2022/07/28 02:24:37;;;;;;;;;;;;;;;9.39;61.03;100905.23;1673217;85;20796;-74
2022/07/28 02:27:23;;;;;;;;;;;;;;;9.36;61.08;100906.88;1667153;84;21162;-74
2022/07/28 02:29:58;;;;;;;;;;;;;;;9.34;61.17;100908.86;1657156;84;20466;-74
2022/07/28 02:32:28;;;;;;;;;;;;;;;9.36;61.24;100908.20;1651281;86;20197;-74
2022/07/28 02:34:59;;;;;;;;;;;;;;;9.36;61.28;100906.88;1667981;85;20327;-74
2022/07/28 02:37:25;;;;;;;;;;;;;;;9.35;61.36;100913.20;1667709;85;20189;-74
2022/07/28 02:39:52;;;;;;;;;;;;;;;9.33;61.42;100912.50;1649906;85;21154;-74
2022/07/28 02:42:22;;;;;;;;;;;;;;;9.31;61.47;100910.48;1645018;86;20600;-74
2022/07/28 02:45:02;;;;;;;;;;;;;;;9.28;61.53;100912.13;1662306;84;20365;-74
2022/07/28 02:47:30;;;;;;;;;;;;;;;9.30;61.60;100907.47;1667733;84;20172;-74
2022/07/28 02:49:56;;;;;;;;;;;;;;;9.29;61.66;100911.11;1668427;86;20425;-74
2022/07/28 02:52:22;;;;;;;;;;;;;;;9.25;61.70;100915.09;1650729;86;21186;-74
2022/07/28 02:54:49;;;;;;;;;;;;;;;9.23;61.80;100914.38;1668285;85;20196;-74
2022/07/28 02:57:15;;;;;;;;;;;;;;;9.22;61.85;100923.34;1633478;88;20162;-74
2022/07/28 02:59:41;;;;;;;;;;;;;;;9.19;61.90;100925.45;1667981;85;20634;-74
2022/07/28 03:02:07;;;;;;;;;;;;;;;9.16;61.99;100934.59;1668337;86;20188;-74
2022/07/28 03:07:17;;;;;;;;;;;;;;;9.11;62.15;100939.53;1658425;86;20148;-74
2022/07/28 03:09:45;;;;;;;;;;;;;;;9.11;62.26;100939.53;1667942;86;20212;-74
2022/07/28 03:12:11;;;;;;;;;;;;;;;9.11;62.33;100940.02;1668378;86;20158;-74
2022/07/28 03:14:37;;;;;;;;;;;;;;;9.09;62.41;100944.63;1668228;85;20186;-74
2022/07/28 03:17:03;;;;;;;;;;;;;;;9.07;62.48;100948.78;1668235;85;21756;-74
2022/07/28 03:19:29;;;;;;;;;;;;;;;9.07;62.57;100951.45;1667824;86;20275;-74
2022/07/28 03:21:55;;;;;;;;;;;;;;;9.08;62.63;100950.95;1667538;85;20299;-74
2022/07/28 03:24:24;;;;;;;;;;;;;;;9.10;62.67;100948.48;1639119;87;20194;-74
2022/07/28 03:26:59;;;;;;;;;;;;;;;9.12;62.73;100954.48;1645169;87;20184;-74
2022/07/28 03:29:25;;;;;;;;;;;;;;;9.14;62.78;100951.69;1643602;87;21216;-74
2022/07/28 03:31:53;;;;;;;;;;;;;;;9.18;62.84;100961.91;1619145;87;20223;-74
2022/07/28 03:34:19;;;;;;;;;;;;;;;9.27;62.88;100961.49;1631415;87;20199;-74
2022/07/28 03:36:44;;;;;;;;;;;;;;;9.33;62.93;100968.87;1644673;86;20218;-74
2022/07/28 03:39:10;;;;;;;;;;;;;;;9.37;62.98;100964.94;1644787;87;20218;-74
2022/07/28 03:41:38;;;;;;;;;;;;;;;9.41;63.03;100967.16;1644764;87;21178;-74
2022/07/28 03:44:04;;;;;;;;;;;;;;;9.42;63.07;100966.67;1644504;87;20148;-75
2022/07/28 03:46:30;;;;;;;;;;;;;;;9.49;63.13;100971.27;1644630;87;20210;-74
2022/07/28 03:48:56;;;;;;;;;;;;;;;9.58;63.15;100966.85;1644719;86;20543;-74
2022/07/28 03:51:24;;;;;;;;;;;;;;;9.62;63.20;100968.72;1644514;87;20172;-75
2022/07/28 03:53:50;;;;;;;;;;;;;;;9.68;63.25;100973.44;1644416;87;21884;-74
2022/07/28 03:56:16;;;;;;;;;;;;;;;9.77;63.30;100977.88;1644128;86;20254;-74
2022/07/28 03:58:42;;;;;;;;;;;;;;;9.81;63.31;100982.77;1644648;86;20190;-74
2022/07/28 04:01:08;;;;;;;;;;;;;;;9.92;63.33;100985.71;1644514;86;20218;-75
2022/07/28 04:03:33;;;;;;;;;;;;;;;10.43;63.61;100985.02;1644925;86;20270;-74
2022/07/28 04:05:59;;;;;;;;;;;;;;;11.83;63.93;100981.93;1644699;86;21677;-74
2022/07/28 04:08:25;;;;;;;;;;;;;;;13.11;63.58;100977.58;1644490;87;20309;-74
2022/07/28 04:10:52;;;;;;;;;;;;;;;14.29;62.97;100981.27;1644697;87;20720;-75
2022/07/28 04:13:19;;;;;;;;;;;;;;;15.52;62.28;100977.73;1644570;86;20440;-74
2022/07/28 04:15:45;;;;;;;;;;;;;;;16.55;61.53;100977.67;1644783;87;20137;-75
2022/07/28 04:18:11;;;;;;;;;;;;;;;17.42;60.74;100976.20;1644530;86;21163;-74
2022/07/28 04:20:36;;;;;;;;;;;;;;;18.14;60.10;100978.34;1644629;86;20215;-75
2022/07/28 04:23:02;;;;;;;;;;;;;;;18.73;59.43;100970.81;1644432;86;20266;-75
2022/07/28 04:25:28;;;;;;;;;;;;;;;19.08;58.76;100972.22;1644570;86;20178;-75
2022/07/28 04:27:54;;;;;;;;;;;;;;;19.54;58.07;100967.22;1646811;87;20783;-75
2022/07/28 04:30:23;;;;;;;;;;;;;;;20.09;57.15;100969.77;1647158;86;21124;-75
2022/07/28 04:32:51;;;;;;;;;;;;;;;20.65;56.40;100975.20;1647380;86;20152;-75
2022/07/28 04:35:17;;;;;;;;;;;;;;;20.82;55.56;100974.42;1647504;86;20168;-75
2022/07/28 04:37:43;;;;;;;;;;;;;;;21.20;54.72;100973.44;1647472;86;20206;-75
2022/07/28 04:40:09;;;;;;;;;;;;;;;21.76;53.84;100973.17;1647502;87;20192;-75
2022/07/28 04:42:37;;;;;;;;;;;;;;;22.28;52.92;100968.90;1647384;86;21229;-75
2022/07/28 04:45:07;;;;;;;;;;;;;;;22.43;52.07;100966.58;1659614;86;20155;-75
2022/07/28 04:47:33;;;;;;;;;;;;;;;22.62;51.20;100968.68;1661493;86;20455;-75
2022/07/28 04:50:00;;;;;;;;;;;;;;;22.78;50.04;100972.08;1655782;86;20231;-75
2022/07/28 04:52:26;;;;;;;;;;;;;;;22.60;49.35;100972.15;1655311;86;20167;-75
2022/07/28 04:54:52;;;;;;;;;;;;;;;21.98;49.42;100979.81;1655754;86;21126;-75
2022/07/28 04:57:18;;;;;;;;;;;;;;;21.19;49.75;100983.45;1655120;85;20176;-75
2022/07/28 04:59:44;;;;;;;;;;;;;;;20.64;49.92;100981.67;1655821;86;20179;-75
2022/07/28 05:02:11;;;;;;;;;;;;;;;20.33;50.04;100982.02;1655440;86;20246;-75
2022/07/28 05:04:37;;;;;;;;;;;;;;;20.16;50.14;100979.48;1655443;85;20168;-75
2022/07/28 05:07:04;;;;;;;;;;;;;;;20.23;50.01;100979.46;1655928;86;21117;-75
2022/07/28 05:09:30;;;;;;;;;;;;;;;20.37;49.98;100977.80;1655682;86;20168;-75
2022/07/28 05:11:57;;;;;;;;;;;;;;;20.39;49.83;100975.72;1656079;86;20431;-76
2022/07/28 05:14:22;;;;;;;;;;;;;;;20.42;49.74;100975.27;1655771;86;20176;-75
2022/07/28 05:16:48;;;;;;;;;;;;;;;20.55;49.68;100980.30;1655998;86;20199;-75
2022/07/28 05:19:14;;;;;;;;;;;;;;;20.52;49.51;100982.07;1655711;86;21861;-75
2022/07/28 05:21:40;;;;;;;;;;;;;;;20.61;49.40;100982.12;1654969;86;20233;-75
2022/07/28 05:24:06;;;;;;;;;;;;;;;20.70;49.33;100978.90;1656198;85;20229;-75
2022/07/28 05:26:33;;;;;;;;;;;;;;;20.78;49.21;100975.08;1652137;85;20217;-75
2022/07/28 05:28:58;;;;;;;;;;;;;;;20.70;49.12;100979.42;1635546;87;20241;-76
2022/07/28 05:31:24;;;;;;;;;;;;;;;20.79;49.05;100984.88;1637854;87;21193;-76
2022/07/28 05:33:50;;;;;;;;;;;;;;;20.82;48.84;100981.72;1637168;87;20239;-76
2022/07/28 05:36:16;;;;;;;;;;;;;;;20.68;48.76;100982.89;1623407;87;20184;-76
2022/07/28 05:38:42;;;;;;;;;;;;;;;20.71;48.77;100985.16;1624180;88;20205;-76
2022/07/28 05:41:08;;;;;;;;;;;;;;;20.90;48.65;100985.48;1624946;88;20308;-76
2022/07/28 05:43:37;;;;;;;;;;;;;;;21.08;48.53;100986.04;1623780;88;21226;-76
2022/07/28 05:46:03;;;;;;;;;;;;;;;21.15;48.29;100986.31;1624955;88;20177;-76
2022/07/28 05:48:29;;;;;;;;;;;;;;;21.11;48.15;100989.16;1623606;88;20222;-76
2022/07/28 05:50:55;;;;;;;;;;;;;;;21.15;48.07;100995.80;1624942;88;20276;-76
2022/07/28 05:53:21;;;;;;;;;;;;;;;21.17;48.00;100991.00;1623963;88;20268;-76
2022/07/28 05:55:47;;;;;;;;;;;;;;;21.22;47.88;100994.38;1624689;88;21772;-76
2022/07/28 05:58:13;;;;;;;;;;;;;;;21.25;47.71;100990.69;1624939;88;20221;-76
2022/07/28 06:00:39;;;;;;;;;;;;;;;21.06;47.53;100989.00;1624657;87;20214;-77
2022/07/28 06:03:06;;;;;;;;;;;;;;;21.19;47.52;100991.59;1624553;88;20262;-76
2022/07/28 06:05:32;;;;;;;;;;;;;;;21.12;47.34;100992.19;1624868;88;20174;-76
2022/07/28 06:07:58;;;;;;;;;;;;;;;21.32;47.34;100995.52;1623287;88;21171;-77
2022/07/28 06:10:25;;;;;;;;;;;;;;;21.54;47.09;100986.91;1622765;88;20249;-76
2022/07/28 06:12:53;;;;;;;;;;;;;;;21.77;47.00;100988.42;1623547;88;21110;-77
2022/07/28 06:15:21;;;;;;;;;;;;;;;21.82;46.83;100989.37;1618281;88;20155;-77
2022/07/28 06:17:51;;;;;;;;;;;;;;;21.93;46.68;100992.41;1623644;87;20187;-76
2022/07/28 06:20:16;;;;;;;;;;;;;;;21.85;46.34;100993.52;1620986;87;21796;-76
2022/07/28 06:22:48;;;;;;;;;;;;;;;21.85;46.25;100998.94;1624328;88;20204;-77
2022/07/28 06:25:20;;;;;;;;;;;;;;;21.90;46.14;100996.41;1623703;87;20214;-77
2022/07/28 06:27:48;;;;;;;;;;;;;;;22.13;46.06;100997.85;1636538;86;20166;-77
2022/07/28 06:30:15;;;;;;;;;;;;;;;22.25;45.88;100994.66;1620014;88;20533;-77
2022/07/28 06:32:41;;;;;;;;;;;;;;;22.22;45.61;100992.41;1644086;85;21916;-75
2022/07/28 06:35:07;;;;;;;;;;;;;;;22.35;45.53;100992.73;1616217;87;20259;-78
2022/07/28 06:37:33;;;;;;;;;;;;;;;22.23;45.25;101002.23;1601790;87;20166;-77
2022/07/28 06:39:59;;;;;;;;;;;;;;;22.24;45.28;101003.86;1624807;88;20193;-79
2022/07/28 06:42:25;;;;;;;;;;;;;;;22.40;45.14;101001.86;1621450;87;20810;-78
2022/07/28 06:44:51;;;;;;;;;;;;;;;22.44;44.96;100995.42;1621599;87;21198;-77
2022/07/28 06:47:17;;;;;;;;;;;;;;;22.45;44.78;101005.77;1613035;88;20285;-78
2022/07/28 06:49:43;;;;;;;;;;;;;;;22.26;44.68;101005.00;1619868;88;20190;-77
2022/07/28 06:52:09;;;;;;;;;;;;;;;22.37;44.56;101004.21;1619398;88;20585;-78
2022/07/28 06:54:35;;;;;;;;;;;;;;;22.51;44.49;101006.19;1621575;86;20177;-77
2022/07/28 06:57:00;;;;;;;;;;;;;;;22.72;44.36;101008.39;1612122;88;21252;-77
2022/07/28 06:59:26;;;;;;;;;;;;;;;22.64;44.14;101005.97;1621130;88;20216;-77
2022/07/28 07:01:52;;;;;;;;;;;;;;;22.58;44.00;101007.75;1621454;88;20260;-77
2022/07/28 07:04:18;;;;;;;;;;;;;;;22.61;43.91;101009.16;1621112;88;20201;-77
2022/07/28 07:06:44;;;;;;;;;;;;;;;22.59;43.80;101013.45;1621382;88;20157;-77
2022/07/28 07:09:10;;;;;;;;;;;;;;;22.70;43.72;101011.33;1621103;88;21859;-77
2022/07/28 07:11:36;;;;;;;;;;;;;;;22.92;43.71;101010.76;1621434;88;20697;-78
2022/07/28 07:14:01;;;;;;;;;;;;;;;23.17;43.54;101012.19;1621411;88;20213;-77
2022/07/28 07:16:27;;;;;;;;;;;;;;;23.34;43.39;101014.48;1610773;88;20599;-77
2022/07/28 07:18:54;;;;;;;;;;;;;;;23.37;43.16;101007.19;1620700;87;20243;-77
2022/07/28 07:21:20;;;;;;;;;;;;;;;23.21;42.97;101007.92;1621856;88;21473;-77
2022/07/28 07:23:46;;;;;;;;;;;;;;;23.25;42.96;101010.47;1614415;87;20723;-77
2022/07/28 07:26:12;;;;;;;;;;;;;;;23.28;42.82;101003.19;1599382;89;20621;-77
2022/07/28 07:28:40;;;;;;;;;;;;;;;23.34;42.62;101000.86;1631801;87;20176;-77
2022/07/28 07:31:06;;;;;;;;;;;;;;;23.45;42.45;100995.66;1646644;86;20428;-77
2022/07/28 07:33:32;;;;;;;;;;;;;;;23.48;42.29;100999.27;1665197;86;22195;-77
2022/07/28 07:35:57;;;;;;;;;;;;;;;23.37;42.12;101004.47;1637412;86;20273;-77
2022/07/28 07:38:23;;;;;;;;;;;;;;;23.49;42.02;101003.66;1661825;86;20334;-77
2022/07/28 07:40:52;;;;;;;;;;;;;;;23.69;41.97;100997.27;1659992;86;20192;-77
2022/07/28 07:43:18;;;;;;;;;;;;;;;23.86;41.71;100998.98;1649873;86;20484;-77
2022/07/28 07:45:44;;;;;;;;;;;;;;;24.01;41.50;100995.72;1652169;85;21569;-77
2022/07/28 07:48:10;;;;;;;;;;;;;;;24.17;41.39;100999.05;1632738;85;20265;-75
2022/07/28 07:50:37;;;;;;;;;;;;;;;24.43;41.15;100996.78;1637346;87;20200;-77
2022/07/28 07:53:03;;;;;;;;;;;;;;;24.50;40.83;101004.27;1638430;87;20390;-78
2022/07/28 07:55:28;;;;;;;;;;;;;;;24.38;40.55;101009.25;1657697;85;20181;-77
2022/07/28 07:57:55;;;;;;;;;;;;;;;24.37;40.45;101012.23;1681564;84;22577;-78
2022/07/28 08:00:21;;;;;;;;;;;;;;;24.56;40.37;101008.76;1661254;85;20142;-78
2022/07/28 08:02:47;;;;;;;;;;;;;;;24.63;40.17;101008.86;1672287;85;20276;-78
2022/07/28 08:05:13;;;;;;;;;;;;;;;24.82;40.06;101006.19;1660734;86;20980;-77
2022/07/28 08:07:38;;;;;;;;;;;;;;;24.74;39.83;101012.58;1660381;86;20192;-76
2022/07/28 08:10:07;;;;;;;;;;;;;;;24.56;39.52;101004.10;1660656;85;21801;-78
2022/07/28 08:12:33;;;;;;;;;;;;;;;24.49;39.35;101008.89;1656301;86;20150;-78
2022/07/28 08:14:58;;;;;;;;;;;;;;;24.51;39.17;101005.93;1643273;85;20441;-77
2022/07/28 08:17:25;;;;;;;;;;;;;;;24.50;39.02;101000.17;1640836;86;20432;-77
2022/07/28 08:19:51;;;;;;;;;;;;;;;24.45;38.76;100997.38;1652133;86;20175;-78
2022/07/28 08:22:16;;;;;;;;;;;;;;;24.46;38.74;100997.65;1662214;85;21639;-76
2022/07/28 08:24:42;;;;;;;;;;;;;;;24.48;38.71;100995.52;1659880;86;20183;-78
2022/07/28 08:27:08;;;;;;;;;;;;;;;24.33;38.41;100997.44;1631799;88;20193;-77
2022/07/28 08:29:34;;;;;;;;;;;;;;;24.17;38.55;100990.88;1667131;84;20296;-78
2022/07/28 08:32:02;;;;;;;;;;;;;;;23.87;38.41;100995.19;1646446;86;20434;-77
2022/07/28 08:34:28;;;;;;;;;;;;;;;23.35;38.45;100997.61;1658401;86;21626;-77
2022/07/28 08:36:55;;;;;;;;;;;;;;;23.01;38.53;100999.28;1661381;86;20652;-77
2022/07/28 08:39:22;;;;;;;;;;;;;;;23.16;38.57;100999.64;1661658;85;20213;-77
2022/07/28 08:42:05;;;;;;;;;;;;;;;23.29;38.58;100996.66;1646413;85;20187;-77
2022/07/28 08:44:53;;;;;;;;;;;;;;;23.48;38.48;100999.27;1662056;84;20433;-76
2022/07/28 08:47:19;;;;;;;;;;;;;;;23.57;38.45;101003.29;1670347;85;22023;-76
2022/07/28 08:49:47;;;;;;;;;;;;;;;23.73;38.40;101002.52;1641233;85;20112;-76
2022/07/28 08:52:13;;;;;;;;;;;;;;;23.84;38.28;100997.05;1640630;86;20088;-77
2022/07/28 08:54:45;;;;;;;;;;;;;;;23.91;38.16;100992.81;1655740;85;20322;-76
2022/07/28 08:57:29;;;;;;;;;;;;;;;23.96;38.01;100994.25;1661316;85;20170;-76
2022/07/28 08:59:55;;;;;;;;;;;;;;;24.08;37.91;100992.85;1622509;86;21708;-76
2022/07/28 09:02:22;;;;;;;;;;;;;;;24.34;37.72;101001.30;1653192;85;20275;-77
2022/07/28 09:04:48;;;;;;;;;;;;;;;24.46;37.46;100999.02;1655677;85;20148;-77
2022/07/28 09:07:14;;;;;;;;;;;;;;;24.52;37.28;100996.16;1648281;85;21075;-77
2022/07/28 09:09:40;;;;;;;;;;;;;;;24.67;37.07;100992.82;1656309;85;20191;-76
2022/07/28 09:12:07;;;;;;;;;;;;;;;24.63;36.86;100994.42;1651991;87;22364;-76
2022/07/28 09:14:36;;;;;;;;;;;;;;;24.36;36.65;100979.22;1651017;86;20190;-77
2022/07/28 09:17:02;;;;;;;;;;;;;;;24.44;36.66;100979.35;1670633;85;20208;-76
2022/07/28 09:19:28;;;;;;;;;;;;;;;24.84;36.50;100984.12;1677395;84;20357;-76
2022/07/28 09:21:56;;;;;;;;;;;;;;;24.73;36.20;100989.13;1644722;86;20465;-75
2022/07/28 09:24:31;;;;;;;;;;;;;;;24.55;36.16;100986.11;1650505;86;22823;-75
2022/07/28 09:27:11;;;;;;;;;;;;;;;24.60;36.14;100983.45;1667294;85;20146;-75
2022/07/28 09:29:38;;;;;;;;;;;;;;;24.70;36.13;100985.53;1659037;85;20455;-76
2022/07/28 09:32:05;;;;;;;;;;;;;;;24.73;36.05;100989.13;1671110;85;20421;-75
2022/07/28 09:34:45;;;;;;;;;;;;;;;24.68;35.91;100987.66;1675242;84;20173;-77
2022/07/28 09:37:21;;;;;;;;;;;;;;;24.73;35.83;100983.13;1673858;85;22114;-78
2022/07/28 09:39:47;;;;;;;;;;;;;;;24.66;35.78;100984.38;1668776;84;21155;-78
2022/07/28 09:42:13;;;;;;;;;;;;;;;24.63;35.68;100986.23;1673836;85;20194;-78
2022/07/28 09:44:40;;;;;;;;;;;;;;;24.58;35.66;100980.69;1673574;85;20375;-78
2022/07/28 09:47:22;;;;;;;;;;;;;;;24.55;35.61;100981.19;1669997;85;20193;-78
2022/07/28 09:49:48;;;;;;;;;;;;;;;24.50;35.47;100990.09;1669954;85;22327;-78
2022/07/28 09:52:31;;;;;;;;;;;;;;;24.42;35.26;100986.41;1672833;84;20250;-78
2022/07/28 09:55:06;;;;;;;;;;;;;;;24.12;35.21;100985.84;1631150;86;20164;-78
2022/07/28 09:57:34;;;;;;;;;;;;;;;24.13;35.26;100987.01;1643305;85;20181;-77
2022/07/28 10:00:00;;;;;;;;;;;;;;;23.96;35.23;100977.91;1654181;85;20169;-78
2022/07/28 10:02:28;;;;;;;;;;;;;;;23.99;35.12;100977.44;1668910;85;22596;-77
2022/07/28 10:04:54;;;;;;;;;;;;;;;24.01;35.18;100977.18;1652468;85;20545;-77
2022/07/28 10:07:20;;;;;;;;;;;;;;;23.87;35.10;100979.37;1660646;85;20188;-78
2022/07/28 10:10:06;;;;;;;;;;;;;;;23.90;35.13;100981.61;1665177;86;21509;-79
2022/07/28 10:12:36;;;;;;;;;;;;;;;23.92;35.18;100982.21;1642919;86;20511;-78
2022/07/28 10:17:59;;;;;;;;;;;;;;;24.16;35.21;100974.25;1676823;84;20195;-78
2022/07/28 10:20:26;;;;;;;;;;;;;;;24.07;35.09;100977.03;1672315;85;20158;-77
2022/07/28 10:22:53;;;;;;;;;;;;;;;23.80;35.17;100969.98;1662587;85;20201;-78
2022/07/28 10:25:20;;;;;;;;;;;;;;;23.81;35.16;100970.82;1671766;85;20172;-79
2022/07/28 10:27:47;;;;;;;;;;;;;;;23.72;35.13;100969.53;1670642;84;22125;-78
2022/07/28 10:30:13;;;;;;;;;;;;;;;23.88;35.20;100972.87;1630432;86;20168;-78
2022/07/28 10:32:41;;;;;;;;;;;;;;;24.06;35.13;100972.67;1617331;86;20197;-78
2022/07/28 10:35:14;;;;;;;;;;;;;;;24.08;34.93;100962.34;1604704;87;20233;-78
2022/07/28 10:37:55;;;;;;;;;;;;;;;24.09;34.92;100972.17;1589529;87;20188;-78
2022/07/28 10:40:24;;;;;;;;;;;;;;;24.17;34.95;100963.61;1588704;88;21476;-78
2022/07/28 10:42:50;;;;;;;;;;;;;;;24.38;34.82;100970.80;1588771;90;20490;-78
2022/07/28 10:45:16;;;;;;;;;;;;;;;24.02;34.73;100965.22;1615496;86;20208;-77
2022/07/28 10:47:42;;;;;;;;;;;;;;;24.15;34.88;100957.59;1636125;86;20205;-78
2022/07/28 10:50:08;;;;;;;;;;;;;;;24.40;34.79;100954.48;1611152;88;20247;-78
2022/07/28 10:52:37;;;;;;;;;;;;;;;24.48;34.62;100955.97;1560707;91;21738;-78
2022/07/28 10:55:30;;;;;;;;;;;;;;;24.42;34.56;100956.97;1575831;88;20218;-78
2022/07/28 10:58:20;;;;;;;;;;;;;;;24.56;34.57;100958.30;1638312;85;20384;-78
2022/07/28 11:00:47;;;;;;;;;;;;;;;24.57;34.43;100958.03;1683794;83;20339;-78
2022/07/28 11:03:22;;;;;;;;;;;;;;;24.55;34.41;100957.47;1675688;85;20602;-78
2022/07/28 11:05:48;;;;;;;;;;;;;;;24.54;34.34;100954.97;1639192;85;21905;-77
2022/07/28 11:08:19;;;;;;;;;;;;;;;24.64;34.32;100951.04;1626949;86;20205;-77
2022/07/28 11:10:49;;;;;;;;;;;;;;;24.71;34.24;100947.61;1673522;84;20179;-77
2022/07/28 11:13:30;;;;;;;;;;;;;;;24.70;34.13;100948.70;1678061;84;20914;-77
2022/07/28 11:16:14;;;;;;;;;;;;;;;24.55;34.08;100946.55;1644518;85;20202;-77
2022/07/28 11:19:09;;;;;;;;;;;;;;;24.45;33.98;100943.67;1623499;86;21684;-77
2022/07/28 11:21:35;;;;;;;;;;;;;;;24.40;34.00;100945.47;1639241;86;20206;-77
2022/07/28 11:24:02;;;;;;;;;;;;;;;24.64;33.97;100938.77;1638548;86;20167;-77
2022/07/28 11:26:36;;;;;;;;;;;;;;;24.62;33.75;100944.48;1638795;86;20352;-77
2022/07/28 11:29:12;;;;;;;;;;;;;;;24.62;33.67;100950.48;1657952;84;20193;-76
2022/07/28 11:31:50;;;;;;;;;;;;;;;24.54;33.63;100939.97;1667119;84;21699;-77
2022/07/28 11:34:21;;;;;;;;;;;;;;;24.63;33.51;100940.66;1634337;86;20195;-77
2022/07/28 11:37:01;;;;;;;;;;;;;;;24.55;33.44;100936.18;1613383;87;21110;-77
2022/07/28 11:39:28;;;;;;;;;;;;;;;24.57;33.44;100935.37;1599570;88;20190;-77
2022/07/28 11:41:54;;;;;;;;;;;;;;;24.64;33.33;100929.22;1607535;86;20169;-77
2022/07/28 11:44:27;;;;;;;;;;;;;;;24.59;33.18;100928.63;1610601;88;21576;-78
2022/07/28 11:46:53;;;;;;;;;;;;;;;24.43;33.06;100923.16;1620849;87;20178;-77
2022/07/28 11:49:21;;;;;;;;;;;;;;;24.43;33.04;100931.33;1616276;88;20167;-78
2022/07/28 11:52:05;;;;;;;;;;;;;;;24.55;32.96;100932.09;1621331;88;20868;-77
2022/07/28 11:54:31;;;;;;;;;;;;;;;24.63;32.86;100931.68;1621719;87;20154;-75
2022/07/28 11:56:57;;;;;;;;;;;;;;;24.69;32.83;100927.95;1621240;88;22316;-78
2022/07/28 11:59:23;;;;;;;;;;;;;;;24.64;32.75;100925.95;1621608;88;20193;-77
2022/07/28 12:01:52;;;;;;;;;;;;;;;24.50;32.70;100931.99;1620683;88;20249;-77
2022/07/28 12:04:18;;;;;;;;;;;;;;;24.49;32.67;100923.55;1608805;88;20200;-77
2022/07/28 12:06:45;;;;;;;;;;;;;;;24.58;32.67;100926.13;1615856;88;20268;-76
2022/07/28 12:09:16;;;;;;;;;;;;;;;24.66;32.65;100928.45;1621731;88;21652;-77
2022/07/28 12:11:42;;;;;;;;;;;;;;;24.60;32.47;100926.70;1601897;88;20185;-77
2022/07/28 12:14:10;;;;;;;;;;;;;;;24.54;32.42;100922.25;1619012;87;20229;-78
2022/07/28 12:16:37;;;;;;;;;;;;;;;24.55;32.34;100917.09;1620352;87;20162;-77
2022/07/28 12:19:04;;;;;;;;;;;;;;;24.48;32.29;100915.06;1619638;88;20222;-77
2022/07/28 12:21:40;;;;;;;;;;;;;;;24.55;32.35;100910.27;1621888;86;21623;-77
2022/07/28 12:24:07;;;;;;;;;;;;;;;24.69;32.33;100909.68;1620738;88;20182;-77
2022/07/28 12:26:36;;;;;;;;;;;;;;;24.87;32.36;100911.33;1622071;87;20154;-77
2022/07/28 12:29:03;;;;;;;;;;;;;;;25.11;32.30;100903.20;1623894;87;20321;-77
2022/07/28 12:31:29;;;;;;;;;;;;;;;25.25;32.19;100897.65;1631311;88;20169;-78
2022/07/28 12:33:55;;;;;;;;;;;;;;;25.29;32.16;100899.33;1623853;86;21678;-77
2022/07/28 12:36:23;;;;;;;;;;;;;;;25.16;32.03;100899.16;1609919;88;20215;-77
2022/07/28 12:38:50;;;;;;;;;;;;;;;25.07;32.11;100891.13;1608312;88;20172;-77
2022/07/28 12:41:16;;;;;;;;;;;;;;;25.17;32.02;100884.43;1608570;87;20259;-77
2022/07/28 12:43:50;;;;;;;;;;;;;;;25.34;32.05;100885.19;1609494;88;20304;-77
2022/07/28 12:46:22;;;;;;;;;;;;;;;25.34;31.97;100878.36;1600007;88;21745;-77
2022/07/28 12:48:48;;;;;;;;;;;;;;;25.39;31.95;100878.97;1591476;88;20160;-77
2022/07/28 12:51:33;;;;;;;;;;;;;;;25.38;31.82;100879.20;1590415;90;20585;-77